WSSS/SIN METAR and TAF weather

Enter ICAO airport designator
Station Type Date Time Source
WSSS METAR 2019/12/09 13:30 UTC NOAA

WSSS 091330Z 02004KT 310V060 9999 FEW015 BKN160 25/24 Q1013 NOSIG


Station Type Date Time Source
WSSS Decoded METAR 2019/12/09 13:30 UTC NOAA

Singapore / Changi Airport, Singapore (WSSS) 01-22N 103-59E 16M
Dec 09, 2019 - 08:30 AM EST / 2019.12.09 1330 UTC
Wind: from the NNE (020 degrees) at 5 MPH (4 KT) (direction variable):0
Visibility: greater than 7 mile(s):0
Sky conditions: mostly cloudy
Temperature: 77 F (25 C)
Dew Point: 75 F (24 C)
Relative Humidity: 94%
Pressure (altimeter): 29.91 in. Hg (1013 hPa)
ob: WSSS 091330Z 02004KT 310V060 9999 FEW015 BKN160 25/24 Q1013 NOSIG
cycle: 13

Station Type Date Time Source
WSSS TAF 2019/12/09 12:06 UTC NOAA

TAF WSSS 091100Z 0912/1018 03014KT 4500 RA SCT012 BKN015
BECMG 0916/0918 9999 NSW
TEMPO 1004/1008 4000 SHRA FEW010 SCT012TCU BKN015

Example: see airport list